Repülésmeteorológia

  • METAR LHSM 240515Z 35017KT 9999 BKN017 10/06 Q1018=
  • METAR LHSM 240445Z 35017KT 9999 FEW017 10/06 Q1018=
  • METAR LHSM 240415Z 34021KT CAVOK 10/06 Q1018=
  • METAR LHSM 240030Z NIL=
  • METAR LHSM 240000Z NIL=

  • TAF LHSM 240515Z 2406/2415 36026G40KT 9999 SCT020=
  • TAF LHSM 231115Z 2312/2321 34022G36KT 8000 -RA SCT012 OVC030
  • TAF LHSM 230815Z 2309/2318 34022G36KT 8000 -RA SCT012 OVC030
  • TAF LHSM 230515Z 2306/2315 34018G32KT 8000 -RA SCT012 OVC030
  • TAF LHSM 221115Z 2212/2221 03016G30KT 8000 RA BKN018 BKN050